sensor_id;sensor_type;location;lat;lon;timestamp;P1;durP1;ratioP1;P2;durP2;ratioP2
7707;SDS011;3896;48.758;8.888;2023-10-19T00:01:13;4.80;;;3.87;;
7707;SDS011;3896;48.758;8.888;2023-10-19T00:03:41;4.50;;;3.97;;
7707;SDS011;3896;48.758;8.888;2023-10-19T00:06:09;5.13;;;4.27;;
7707;SDS011;3896;48.758;8.888;2023-10-19T00:08:35;6.07;;;4.67;;
7707;SDS011;3896;48.758;8.888;2023-10-19T00:11:01;5.60;;;4.90;;
7707;SDS011;3896;48.758;8.888;2023-10-19T00:13:33;5.23;;;4.73;;
7707;SDS011;3896;48.758;8.888;2023-10-19T00:16:06;5.40;;;4.00;;
7707;SDS011;3896;48.758;8.888;2023-10-19T00:18:42;6.23;;;4.63;;
7707;SDS011;3896;48.758;8.888;2023-10-19T00:21:08;6.57;;;4.63;;
7707;SDS011;3896;48.758;8.888;2023-10-19T00:23:37;5.37;;;4.33;;
7707;SDS011;3896;48.758;8.888;2023-10-19T00:26:04;4.73;;;3.80;;
7707;SDS011;3896;48.758;8.888;2023-10-19T00:28:33;4.40;;;3.97;;
7707;SDS011;3896;48.758;8.888;2023-10-19T00:31:01;5.33;;;3.77;;
7707;SDS011;3896;48.758;8.888;2023-10-19T00:33:33;4.17;;;3.67;;
7707;SDS011;3896;48.758;8.888;2023-10-19T00:36:03;4.53;;;3.90;;
7707;SDS011;3896;48.758;8.888;2023-10-19T00:38:36;5.97;;;3.93;;
7707;SDS011;3896;48.758;8.888;2023-10-19T00:41:02;6.47;;;3.93;;
7707;SDS011;3896;48.758;8.888;2023-10-19T00:43:44;5.17;;;3.40;;
7707;SDS011;3896;48.758;8.888;2023-10-19T00:46:10;5.47;;;3.77;;
7707;SDS011;3896;48.758;8.888;2023-10-19T00:48:43;4.23;;;3.80;;
7707;SDS011;3896;48.758;8.888;2023-10-19T00:51:16;3.97;;;3.20;;
7707;SDS011;3896;48.758;8.888;2023-10-19T00:56:35;4.00;;;3.40;;
7707;SDS011;3896;48.758;8.888;2023-10-19T00:59:01;5.90;;;3.57;;
7707;SDS011;3896;48.758;8.888;2023-10-19T01:01:54;4.90;;;3.30;;
7707;SDS011;3896;48.758;8.888;2023-10-19T01:04:22;5.10;;;3.43;;
7707;SDS011;3896;48.758;8.888;2023-10-19T01:06:51;3.80;;;3.03;;
7707;SDS011;3896;48.758;8.888;2023-10-19T01:09:29;4.60;;;3.33;;
7707;SDS011;3896;48.758;8.888;2023-10-19T01:11:59;6.00;;;4.00;;
7707;SDS011;3896;48.758;8.888;2023-10-19T01:17:39;4.50;;;3.27;;
7707;SDS011;3896;48.758;8.888;2023-10-19T01:22:47;3.30;;;2.97;;
7707;SDS011;3896;48.758;8.888;2023-10-19T01:25:14;4.00;;;3.30;;
7707;SDS011;3896;48.758;8.888;2023-10-19T01:27:45;3.67;;;2.93;;
7707;SDS011;3896;48.758;8.888;2023-10-19T01:30:12;3.53;;;2.80;;
7707;SDS011;3896;48.758;8.888;2023-10-19T01:32:39;3.43;;;3.13;;
7707;SDS011;3896;48.758;8.888;2023-10-19T01:35:07;3.67;;;3.30;;
7707;SDS011;3896;48.758;8.888;2023-10-19T01:37:32;3.13;;;2.87;;
7707;SDS011;3896;48.758;8.888;2023-10-19T01:40:03;13.47;;;7.87;;
7707;SDS011;3896;48.758;8.888;2023-10-19T01:42:29;4.67;;;4.07;;
7707;SDS011;3896;48.758;8.888;2023-10-19T01:44:55;8.07;;;3.67;;
7707;SDS011;3896;48.758;8.888;2023-10-19T01:47:22;4.57;;;3.43;;
7707;SDS011;3896;48.758;8.888;2023-10-19T01:49:49;5.90;;;3.17;;
7707;SDS011;3896;48.758;8.888;2023-10-19T01:52:17;3.07;;;2.83;;
7707;SDS011;3896;48.758;8.888;2023-10-19T01:54:43;3.43;;;3.13;;
7707;SDS011;3896;48.758;8.888;2023-10-19T01:57:08;7.10;;;3.50;;
7707;SDS011;3896;48.758;8.888;2023-10-19T01:59:34;4.20;;;2.73;;
7707;SDS011;3896;48.758;8.888;2023-10-19T02:02:00;5.33;;;3.40;;
7707;SDS011;3896;48.758;8.888;2023-10-19T02:04:27;4.83;;;3.00;;
7707;SDS011;3896;48.758;8.888;2023-10-19T02:06:52;3.47;;;3.17;;
7707;SDS011;3896;48.758;8.888;2023-10-19T02:09:18;3.33;;;2.73;;
7707;SDS011;3896;48.758;8.888;2023-10-19T02:11:49;2.90;;;2.70;;
7707;SDS011;3896;48.758;8.888;2023-10-19T02:14:22;3.73;;;2.63;;
7707;SDS011;3896;48.758;8.888;2023-10-19T02:16:56;3.27;;;2.97;;
7707;SDS011;3896;48.758;8.888;2023-10-19T02:19:26;3.60;;;3.00;;
7707;SDS011;3896;48.758;8.888;2023-10-19T02:21:53;3.90;;;2.63;;
7707;SDS011;3896;48.758;8.888;2023-10-19T02:24:24;3.43;;;2.90;;
7707;SDS011;3896;48.758;8.888;2023-10-19T02:26:52;3.83;;;2.87;;
7707;SDS011;3896;48.758;8.888;2023-10-19T02:29:19;2.57;;;2.37;;
7707;SDS011;3896;48.758;8.888;2023-10-19T02:31:46;3.10;;;2.47;;
7707;SDS011;3896;48.758;8.888;2023-10-19T02:34:13;3.37;;;3.07;;
7707;SDS011;3896;48.758;8.888;2023-10-19T02:36:42;5.20;;;2.60;;
7707;SDS011;3896;48.758;8.888;2023-10-19T02:39:10;3.73;;;2.30;;
7707;SDS011;3896;48.758;8.888;2023-10-19T02:41:38;3.90;;;2.53;;
7707;SDS011;3896;48.758;8.888;2023-10-19T02:44:09;3.37;;;3.07;;
7707;SDS011;3896;48.758;8.888;2023-10-19T02:46:47;4.77;;;3.07;;
7707;SDS011;3896;48.758;8.888;2023-10-19T02:49:16;2.47;;;2.20;;
7707;SDS011;3896;48.758;8.888;2023-10-19T02:51:49;2.60;;;2.40;;
7707;SDS011;3896;48.758;8.888;2023-10-19T02:54:16;2.87;;;2.57;;
7707;SDS011;3896;48.758;8.888;2023-10-19T02:56:50;3.10;;;2.23;;
7707;SDS011;3896;48.758;8.888;2023-10-19T02:59:18;3.57;;;2.50;;
7707;SDS011;3896;48.758;8.888;2023-10-19T03:01:48;3.00;;;2.70;;
7707;SDS011;3896;48.758;8.888;2023-10-19T03:04:17;2.53;;;2.33;;
7707;SDS011;3896;48.758;8.888;2023-10-19T03:06:43;3.37;;;2.83;;
7707;SDS011;3896;48.758;8.888;2023-10-19T03:09:09;2.77;;;2.57;;
7707;SDS011;3896;48.758;8.888;2023-10-19T03:11:47;2.97;;;2.67;;
7707;SDS011;3896;48.758;8.888;2023-10-19T03:14:17;2.90;;;2.60;;
7707;SDS011;3896;48.758;8.888;2023-10-19T03:16:43;3.60;;;3.20;;
7707;SDS011;3896;48.758;8.888;2023-10-19T03:19:10;3.30;;;3.00;;
7707;SDS011;3896;48.758;8.888;2023-10-19T03:21:37;3.57;;;3.17;;
7707;SDS011;3896;48.758;8.888;2023-10-19T03:24:28;3.23;;;2.97;;
7707;SDS011;3896;48.758;8.888;2023-10-19T03:27:12;3.50;;;3.20;;
7707;SDS011;3896;48.758;8.888;2023-10-19T03:29:43;5.47;;;3.10;;
7707;SDS011;3896;48.758;8.888;2023-10-19T03:32:19;3.37;;;2.87;;
7707;SDS011;3896;48.758;8.888;2023-10-19T03:34:52;4.47;;;2.73;;
7707;SDS011;3896;48.758;8.888;2023-10-19T03:37:21;4.23;;;2.67;;
7707;SDS011;3896;48.758;8.888;2023-10-19T03:39:49;3.23;;;2.90;;
7707;SDS011;3896;48.758;8.888;2023-10-19T03:42:16;5.13;;;2.70;;
7707;SDS011;3896;48.758;8.888;2023-10-19T03:44:42;3.20;;;2.83;;
7707;SDS011;3896;48.758;8.888;2023-10-19T03:47:15;3.53;;;2.73;;
7707;SDS011;3896;48.758;8.888;2023-10-19T03:49:46;2.67;;;2.47;;
7707;SDS011;3896;48.758;8.888;2023-10-19T03:52:12;6.33;;;3.00;;
7707;SDS011;3896;48.758;8.888;2023-10-19T03:54:38;2.83;;;2.50;;
7707;SDS011;3896;48.758;8.888;2023-10-19T03:57:09;4.03;;;3.07;;
7707;SDS011;3896;48.758;8.888;2023-10-19T03:59:48;3.10;;;2.80;;
7707;SDS011;3896;48.758;8.888;2023-10-19T04:02:26;3.30;;;2.90;;
7707;SDS011;3896;48.758;8.888;2023-10-19T04:04:53;4.30;;;2.87;;
7707;SDS011;3896;48.758;8.888;2023-10-19T04:07:22;5.40;;;2.90;;
7707;SDS011;3896;48.758;8.888;2023-10-19T04:09:51;4.77;;;2.90;;
7707;SDS011;3896;48.758;8.888;2023-10-19T04:12:27;3.03;;;2.80;;
7707;SDS011;3896;48.758;8.888;2023-10-19T04:14:56;2.77;;;2.57;;
7707;SDS011;3896;48.758;8.888;2023-10-19T04:17:22;3.23;;;2.90;;
7707;SDS011;3896;48.758;8.888;2023-10-19T04:19:48;4.23;;;2.70;;
7707;SDS011;3896;48.758;8.888;2023-10-19T04:22:17;4.27;;;3.20;;
7707;SDS011;3896;48.758;8.888;2023-10-19T04:24:50;4.53;;;3.67;;
7707;SDS011;3896;48.758;8.888;2023-10-19T04:27:16;3.60;;;2.67;;
7707;SDS011;3896;48.758;8.888;2023-10-19T04:29:42;7.63;;;2.80;;
7707;SDS011;3896;48.758;8.888;2023-10-19T04:32:09;4.37;;;3.03;;
7707;SDS011;3896;48.758;8.888;2023-10-19T04:34:36;3.97;;;2.53;;
7707;SDS011;3896;48.758;8.888;2023-10-19T04:37:02;3.37;;;2.67;;
7707;SDS011;3896;48.758;8.888;2023-10-19T04:39:31;4.37;;;2.50;;
7707;SDS011;3896;48.758;8.888;2023-10-19T04:41:59;2.83;;;2.63;;
7707;SDS011;3896;48.758;8.888;2023-10-19T04:44:24;2.77;;;2.57;;
7707;SDS011;3896;48.758;8.888;2023-10-19T04:46:50;2.87;;;2.60;;
7707;SDS011;3896;48.758;8.888;2023-10-19T04:49:16;3.03;;;2.70;;
7707;SDS011;3896;48.758;8.888;2023-10-19T04:51:41;2.70;;;2.50;;
7707;SDS011;3896;48.758;8.888;2023-10-19T04:54:08;4.67;;;2.90;;
7707;SDS011;3896;48.758;8.888;2023-10-19T04:56:34;3.00;;;2.80;;
7707;SDS011;3896;48.758;8.888;2023-10-19T04:59:01;3.40;;;2.37;;
7707;SDS011;3896;48.758;8.888;2023-10-19T05:01:27;3.03;;;2.80;;
7707;SDS011;3896;48.758;8.888;2023-10-19T05:03:53;3.40;;;2.50;;
7707;SDS011;3896;48.758;8.888;2023-10-19T05:06:19;2.70;;;2.50;;
7707;SDS011;3896;48.758;8.888;2023-10-19T05:08:44;2.90;;;2.20;;
7707;SDS011;3896;48.758;8.888;2023-10-19T05:11:11;3.53;;;2.57;;
7707;SDS011;3896;48.758;8.888;2023-10-19T05:13:37;2.83;;;2.50;;
7707;SDS011;3896;48.758;8.888;2023-10-19T05:16:04;3.20;;;2.33;;
7707;SDS011;3896;48.758;8.888;2023-10-19T05:18:29;3.40;;;2.80;;
7707;SDS011;3896;48.758;8.888;2023-10-19T05:20:55;3.03;;;2.73;;
7707;SDS011;3896;48.758;8.888;2023-10-19T05:23:24;4.00;;;2.30;;
7707;SDS011;3896;48.758;8.888;2023-10-19T05:25:51;2.63;;;2.43;;
7707;SDS011;3896;48.758;8.888;2023-10-19T05:28:18;3.33;;;2.40;;
7707;SDS011;3896;48.758;8.888;2023-10-19T05:30:44;3.07;;;2.60;;
7707;SDS011;3896;48.758;8.888;2023-10-19T05:33:10;4.13;;;2.40;;
7707;SDS011;3896;48.758;8.888;2023-10-19T05:35:35;3.30;;;2.30;;
7707;SDS011;3896;48.758;8.888;2023-10-19T05:38:05;3.50;;;2.47;;
7707;SDS011;3896;48.758;8.888;2023-10-19T05:40:34;2.93;;;2.57;;
7707;SDS011;3896;48.758;8.888;2023-10-19T05:43:01;6.27;;;2.93;;
7707;SDS011;3896;48.758;8.888;2023-10-19T05:45:27;8.77;;;3.07;;
7707;SDS011;3896;48.758;8.888;2023-10-19T05:47:54;3.50;;;3.10;;
7707;SDS011;3896;48.758;8.888;2023-10-19T05:50:22;3.50;;;3.17;;
7707;SDS011;3896;48.758;8.888;2023-10-19T05:52:48;6.70;;;3.27;;
7707;SDS011;3896;48.758;8.888;2023-10-19T05:55:13;5.00;;;3.43;;
7707;SDS011;3896;48.758;8.888;2023-10-19T05:57:40;2.60;;;2.37;;
7707;SDS011;3896;48.758;8.888;2023-10-19T06:00:09;3.77;;;2.50;;
7707;SDS011;3896;48.758;8.888;2023-10-19T06:02:42;5.23;;;2.73;;
7707;SDS011;3896;48.758;8.888;2023-10-19T06:05:09;2.77;;;2.37;;
7707;SDS011;3896;48.758;8.888;2023-10-19T06:07:35;2.63;;;2.43;;
7707;SDS011;3896;48.758;8.888;2023-10-19T06:10:01;3.47;;;2.70;;
7707;SDS011;3896;48.758;8.888;2023-10-19T06:12:30;3.97;;;3.07;;
7707;SDS011;3896;48.758;8.888;2023-10-19T06:14:56;3.57;;;2.53;;
7707;SDS011;3896;48.758;8.888;2023-10-19T06:30:19;6.70;;;3.60;;
7707;SDS011;3896;48.758;8.888;2023-10-19T06:32:48;3.33;;;2.87;;
7707;SDS011;3896;48.758;8.888;2023-10-19T06:35:17;4.83;;;2.90;;
7707;SDS011;3896;48.758;8.888;2023-10-19T06:37:44;4.20;;;3.47;;
7707;SDS011;3896;48.758;8.888;2023-10-19T06:40:10;3.60;;;3.27;;
7707;SDS011;3896;48.758;8.888;2023-10-19T06:42:38;4.67;;;3.50;;
7707;SDS011;3896;48.758;8.888;2023-10-19T06:45:04;3.80;;;3.50;;
7707;SDS011;3896;48.758;8.888;2023-10-19T06:47:30;3.53;;;3.23;;
7707;SDS011;3896;48.758;8.888;2023-10-19T06:49:55;5.10;;;3.87;;
7707;SDS011;3896;48.758;8.888;2023-10-19T06:52:21;5.90;;;3.90;;
7707;SDS011;3896;48.758;8.888;2023-10-19T06:54:47;5.27;;;4.10;;
7707;SDS011;3896;48.758;8.888;2023-10-19T06:57:13;5.43;;;4.17;;
7707;SDS011;3896;48.758;8.888;2023-10-19T06:59:38;5.10;;;3.57;;
7707;SDS011;3896;48.758;8.888;2023-10-19T07:02:04;4.87;;;4.00;;
7707;SDS011;3896;48.758;8.888;2023-10-19T07:04:32;7.43;;;4.20;;
7707;SDS011;3896;48.758;8.888;2023-10-19T07:06:58;5.50;;;3.80;;
7707;SDS011;3896;48.758;8.888;2023-10-19T07:09:25;7.47;;;4.90;;
7707;SDS011;3896;48.758;8.888;2023-10-19T07:11:51;5.80;;;4.20;;
7707;SDS011;3896;48.758;8.888;2023-10-19T07:14:18;5.00;;;4.10;;
7707;SDS011;3896;48.758;8.888;2023-10-19T07:16:45;5.83;;;3.83;;
7707;SDS011;3896;48.758;8.888;2023-10-19T07:19:10;6.17;;;4.90;;
7707;SDS011;3896;48.758;8.888;2023-10-19T07:21:36;4.23;;;3.37;;
7707;SDS011;3896;48.758;8.888;2023-10-19T07:24:03;4.37;;;3.90;;
7707;SDS011;3896;48.758;8.888;2023-10-19T07:26:34;5.17;;;3.03;;
7707;SDS011;3896;48.758;8.888;2023-10-19T07:29:06;6.13;;;3.37;;
7707;SDS011;3896;48.758;8.888;2023-10-19T07:31:35;7.53;;;5.67;;
7707;SDS011;3896;48.758;8.888;2023-10-19T07:34:01;10.70;;;7.43;;
7707;SDS011;3896;48.758;8.888;2023-10-19T07:36:28;14.30;;;9.77;;
7707;SDS011;3896;48.758;8.888;2023-10-19T07:38:54;14.63;;;8.33;;
7707;SDS011;3896;48.758;8.888;2023-10-19T07:41:20;12.07;;;8.20;;
7707;SDS011;3896;48.758;8.888;2023-10-19T07:43:45;10.07;;;7.73;;
7707;SDS011;3896;48.758;8.888;2023-10-19T07:46:11;11.50;;;8.57;;
7707;SDS011;3896;48.758;8.888;2023-10-19T07:48:37;10.77;;;7.90;;
7707;SDS011;3896;48.758;8.888;2023-10-19T07:51:03;9.03;;;6.10;;
7707;SDS011;3896;48.758;8.888;2023-10-19T07:53:29;4.93;;;4.43;;
7707;SDS011;3896;48.758;8.888;2023-10-19T07:55:55;4.47;;;3.90;;
7707;SDS011;3896;48.758;8.888;2023-10-19T07:58:22;6.40;;;4.77;;
7707;SDS011;3896;48.758;8.888;2023-10-19T08:00:47;5.40;;;3.97;;
7707;SDS011;3896;48.758;8.888;2023-10-19T08:03:13;7.30;;;4.20;;
7707;SDS011;3896;48.758;8.888;2023-10-19T08:05:41;6.93;;;4.43;;
7707;SDS011;3896;48.758;8.888;2023-10-19T08:08:07;8.97;;;4.47;;
7707;SDS011;3896;48.758;8.888;2023-10-19T08:10:33;9.03;;;4.60;;
7707;SDS011;3896;48.758;8.888;2023-10-19T08:13:00;6.57;;;4.83;;
7707;SDS011;3896;48.758;8.888;2023-10-19T08:15:26;8.60;;;5.13;;
7707;SDS011;3896;48.758;8.888;2023-10-19T08:17:52;9.67;;;6.00;;
7707;SDS011;3896;48.758;8.888;2023-10-19T08:20:19;12.23;;;6.83;;
7707;SDS011;3896;48.758;8.888;2023-10-19T08:22:52;7.57;;;4.97;;
7707;SDS011;3896;48.758;8.888;2023-10-19T08:25:18;6.47;;;4.77;;
7707;SDS011;3896;48.758;8.888;2023-10-19T08:27:44;4.40;;;4.00;;
7707;SDS011;3896;48.758;8.888;2023-10-19T08:30:11;7.60;;;4.80;;
7707;SDS011;3896;48.758;8.888;2023-10-19T08:32:40;4.80;;;3.70;;
7707;SDS011;3896;48.758;8.888;2023-10-19T08:35:06;3.60;;;3.10;;
7707;SDS011;3896;48.758;8.888;2023-10-19T08:37:33;3.33;;;3.13;;
7707;SDS011;3896;48.758;8.888;2023-10-19T08:39:59;3.17;;;2.80;;
7707;SDS011;3896;48.758;8.888;2023-10-19T08:42:26;2.73;;;2.53;;
7707;SDS011;3896;48.758;8.888;2023-10-19T08:44:55;3.00;;;2.70;;
7707;SDS011;3896;48.758;8.888;2023-10-19T08:47:24;2.20;;;2.00;;
7707;SDS011;3896;48.758;8.888;2023-10-19T08:49:51;3.50;;;3.20;;
7707;SDS011;3896;48.758;8.888;2023-10-19T08:52:18;3.00;;;2.77;;
7707;SDS011;3896;48.758;8.888;2023-10-19T08:54:47;2.60;;;2.20;;
7707;SDS011;3896;48.758;8.888;2023-10-19T08:57:13;5.90;;;2.70;;
7707;SDS011;3896;48.758;8.888;2023-10-19T08:59:39;2.40;;;1.80;;
7707;SDS011;3896;48.758;8.888;2023-10-19T09:02:05;3.07;;;2.10;;
7707;SDS011;3896;48.758;8.888;2023-10-19T09:04:32;3.70;;;1.80;;
7707;SDS011;3896;48.758;8.888;2023-10-19T09:06:57;4.43;;;2.23;;
7707;SDS011;3896;48.758;8.888;2023-10-19T09:09:25;2.13;;;1.93;;
7707;SDS011;3896;48.758;8.888;2023-10-19T09:11:56;2.27;;;1.93;;
7707;SDS011;3896;48.758;8.888;2023-10-19T09:14:32;2.40;;;2.20;;
7707;SDS011;3896;48.758;8.888;2023-10-19T09:17:01;2.37;;;1.87;;
7707;SDS011;3896;48.758;8.888;2023-10-19T09:19:39;3.03;;;1.97;;
7707;SDS011;3896;48.758;8.888;2023-10-19T09:22:06;4.30;;;2.97;;
7707;SDS011;3896;48.758;8.888;2023-10-19T09:24:35;2.13;;;1.90;;
7707;SDS011;3896;48.758;8.888;2023-10-19T09:27:02;3.67;;;2.13;;
7707;SDS011;3896;48.758;8.888;2023-10-19T09:29:28;1.77;;;1.50;;
7707;SDS011;3896;48.758;8.888;2023-10-19T09:31:56;2.53;;;2.33;;
7707;SDS011;3896;48.758;8.888;2023-10-19T09:34:27;2.20;;;2.10;;
7707;SDS011;3896;48.758;8.888;2023-10-19T09:36:57;3.87;;;1.67;;
7707;SDS011;3896;48.758;8.888;2023-10-19T09:39:29;4.20;;;1.70;;
7707;SDS011;3896;48.758;8.888;2023-10-19T09:42:08;2.10;;;1.90;;
7707;SDS011;3896;48.758;8.888;2023-10-19T09:44:44;3.80;;;2.10;;
7707;SDS011;3896;48.758;8.888;2023-10-19T09:47:26;2.43;;;1.97;;
7707;SDS011;3896;48.758;8.888;2023-10-19T09:49:56;3.63;;;2.10;;
7707;SDS011;3896;48.758;8.888;2023-10-19T09:52:22;3.73;;;2.00;;
7707;SDS011;3896;48.758;8.888;2023-10-19T09:54:52;2.20;;;1.90;;
7707;SDS011;3896;48.758;8.888;2023-10-19T09:57:37;3.77;;;2.00;;
7707;SDS011;3896;48.758;8.888;2023-10-19T10:00:12;2.43;;;2.00;;
7707;SDS011;3896;48.758;8.888;2023-10-19T10:02:38;2.67;;;2.23;;
7707;SDS011;3896;48.758;8.888;2023-10-19T10:10:42;3.27;;;2.13;;
7707;SDS011;3896;48.758;8.888;2023-10-19T10:15:49;2.33;;;2.00;;
7707;SDS011;3896;48.758;8.888;2023-10-19T10:18:17;3.43;;;2.30;;
7707;SDS011;3896;48.758;8.888;2023-10-19T10:20:42;2.60;;;2.07;;
7707;SDS011;3896;48.758;8.888;2023-10-19T10:23:21;2.10;;;1.73;;
7707;SDS011;3896;48.758;8.888;2023-10-19T10:25:57;3.07;;;2.10;;
7707;SDS011;3896;48.758;8.888;2023-10-19T10:28:23;1.90;;;1.80;;
7707;SDS011;3896;48.758;8.888;2023-10-19T10:33:50;2.47;;;1.93;;
7707;SDS011;3896;48.758;8.888;2023-10-19T10:36:17;3.97;;;1.93;;
7707;SDS011;3896;48.758;8.888;2023-10-19T10:38:47;2.67;;;2.27;;
7707;SDS011;3896;48.758;8.888;2023-10-19T10:41:24;2.60;;;2.40;;
7707;SDS011;3896;48.758;8.888;2023-10-19T10:43:54;4.30;;;2.07;;
7707;SDS011;3896;48.758;8.888;2023-10-19T10:46:21;1.97;;;1.87;;
7707;SDS011;3896;48.758;8.888;2023-10-19T10:48:52;5.90;;;2.20;;
7707;SDS011;3896;48.758;8.888;2023-10-19T10:51:22;1.93;;;1.83;;
7707;SDS011;3896;48.758;8.888;2023-10-19T10:53:53;1.50;;;1.40;;
7707;SDS011;3896;48.758;8.888;2023-10-19T10:56:19;2.87;;;1.33;;
7707;SDS011;3896;48.758;8.888;2023-10-19T10:58:47;3.73;;;1.43;;
7707;SDS011;3896;48.758;8.888;2023-10-19T11:01:12;1.47;;;1.27;;
7707;SDS011;3896;48.758;8.888;2023-10-19T11:03:39;3.10;;;1.40;;
7707;SDS011;3896;48.758;8.888;2023-10-19T11:06:07;1.40;;;1.30;;
7707;SDS011;3896;48.758;8.888;2023-10-19T11:08:41;2.10;;;1.90;;
7707;SDS011;3896;48.758;8.888;2023-10-19T11:11:08;2.43;;;1.80;;
7707;SDS011;3896;48.758;8.888;2023-10-19T11:13:38;2.40;;;2.10;;
7707;SDS011;3896;48.758;8.888;2023-10-19T11:16:05;1.70;;;1.60;;
7707;SDS011;3896;48.758;8.888;2023-10-19T11:21:08;2.50;;;2.17;;
7707;SDS011;3896;48.758;8.888;2023-10-19T11:23:53;2.23;;;1.40;;
7707;SDS011;3896;48.758;8.888;2023-10-19T11:26:22;1.70;;;1.60;;
7707;SDS011;3896;48.758;8.888;2023-10-19T11:29:00;1.77;;;1.40;;
7707;SDS011;3896;48.758;8.888;2023-10-19T11:31:29;1.40;;;1.30;;
7707;SDS011;3896;48.758;8.888;2023-10-19T11:34:02;1.57;;;1.43;;
7707;SDS011;3896;48.758;8.888;2023-10-19T11:36:29;2.77;;;1.40;;
7707;SDS011;3896;48.758;8.888;2023-10-19T11:38:54;1.27;;;1.27;;
7707;SDS011;3896;48.758;8.888;2023-10-19T11:41:20;4.17;;;1.30;;
7707;SDS011;3896;48.758;8.888;2023-10-19T11:43:47;2.63;;;1.30;;
7707;SDS011;3896;48.758;8.888;2023-10-19T11:46:13;1.50;;;1.40;;
7707;SDS011;3896;48.758;8.888;2023-10-19T11:48:40;1.67;;;1.57;;
7707;SDS011;3896;48.758;8.888;2023-10-19T11:51:07;1.40;;;1.30;;
7707;SDS011;3896;48.758;8.888;2023-10-19T11:53:36;1.47;;;1.37;;
7707;SDS011;3896;48.758;8.888;2023-10-19T11:56:07;1.87;;;1.40;;
7707;SDS011;3896;48.758;8.888;2023-10-19T11:58:35;1.40;;;1.30;;
7707;SDS011;3896;48.758;8.888;2023-10-19T12:01:02;1.50;;;1.20;;
7707;SDS011;3896;48.758;8.888;2023-10-19T12:03:30;2.13;;;2.00;;
7707;SDS011;3896;48.758;8.888;2023-10-19T12:05:56;1.53;;;1.30;;
7707;SDS011;3896;48.758;8.888;2023-10-19T12:08:22;3.77;;;1.70;;
7707;SDS011;3896;48.758;8.888;2023-10-19T12:10:50;1.80;;;1.70;;
7707;SDS011;3896;48.758;8.888;2023-10-19T12:13:16;2.07;;;1.53;;
7707;SDS011;3896;48.758;8.888;2023-10-19T12:15:41;2.03;;;1.90;;
7707;SDS011;3896;48.758;8.888;2023-10-19T12:18:16;2.20;;;2.00;;
7707;SDS011;3896;48.758;8.888;2023-10-19T12:20:45;3.97;;;1.90;;
7707;SDS011;3896;48.758;8.888;2023-10-19T12:23:11;2.60;;;2.10;;
7707;SDS011;3896;48.758;8.888;2023-10-19T12:25:36;2.40;;;2.07;;
7707;SDS011;3896;48.758;8.888;2023-10-19T12:28:03;2.53;;;2.10;;
7707;SDS011;3896;48.758;8.888;2023-10-19T12:30:29;3.10;;;2.37;;
7707;SDS011;3896;48.758;8.888;2023-10-19T12:33:01;3.23;;;2.70;;
7707;SDS011;3896;48.758;8.888;2023-10-19T12:35:32;3.67;;;2.70;;
7707;SDS011;3896;48.758;8.888;2023-10-19T12:38:17;2.40;;;2.17;;
7707;SDS011;3896;48.758;8.888;2023-10-19T12:40:45;3.87;;;2.37;;
7707;SDS011;3896;48.758;8.888;2023-10-19T12:43:13;1.90;;;1.60;;
7707;SDS011;3896;48.758;8.888;2023-10-19T12:45:40;4.40;;;2.07;;
7707;SDS011;3896;48.758;8.888;2023-10-19T12:48:08;2.30;;;1.77;;
7707;SDS011;3896;48.758;8.888;2023-10-19T12:50:36;1.80;;;1.70;;
7707;SDS011;3896;48.758;8.888;2023-10-19T12:53:02;1.60;;;1.50;;
7707;SDS011;3896;48.758;8.888;2023-10-19T12:55:28;2.30;;;2.10;;
7707;SDS011;3896;48.758;8.888;2023-10-19T12:57:56;2.10;;;1.90;;
7707;SDS011;3896;48.758;8.888;2023-10-19T13:00:22;2.40;;;2.03;;
7707;SDS011;3896;48.758;8.888;2023-10-19T13:02:51;1.60;;;1.50;;
7707;SDS011;3896;48.758;8.888;2023-10-19T13:05:32;1.60;;;1.50;;
7707;SDS011;3896;48.758;8.888;2023-10-19T13:07:59;3.03;;;1.90;;
7707;SDS011;3896;48.758;8.888;2023-10-19T13:10:28;1.97;;;1.87;;
7707;SDS011;3896;48.758;8.888;2023-10-19T13:12:57;1.77;;;1.67;;
7707;SDS011;3896;48.758;8.888;2023-10-19T13:15:32;1.80;;;1.70;;
7707;SDS011;3896;48.758;8.888;2023-10-19T13:18:03;2.73;;;1.90;;
7707;SDS011;3896;48.758;8.888;2023-10-19T13:20:31;4.07;;;2.30;;
7707;SDS011;3896;48.758;8.888;2023-10-19T13:23:03;2.57;;;2.40;;
7707;SDS011;3896;48.758;8.888;2023-10-19T13:25:31;3.70;;;2.07;;
7707;SDS011;3896;48.758;8.888;2023-10-19T13:28:15;2.23;;;2.03;;
7707;SDS011;3896;48.758;8.888;2023-10-19T13:30:43;2.13;;;2.03;;
7707;SDS011;3896;48.758;8.888;2023-10-19T13:33:15;2.83;;;2.30;;
7707;SDS011;3896;48.758;8.888;2023-10-19T13:35:42;2.90;;;2.10;;
7707;SDS011;3896;48.758;8.888;2023-10-19T13:38:09;3.17;;;2.43;;
7707;SDS011;3896;48.758;8.888;2023-10-19T13:40:36;2.10;;;1.90;;
7707;SDS011;3896;48.758;8.888;2023-10-19T13:43:03;1.90;;;1.80;;
7707;SDS011;3896;48.758;8.888;2023-10-19T13:45:31;2.43;;;2.10;;
7707;SDS011;3896;48.758;8.888;2023-10-19T13:47:58;2.83;;;2.60;;
7707;SDS011;3896;48.758;8.888;2023-10-19T13:50:24;2.37;;;2.17;;
7707;SDS011;3896;48.758;8.888;2023-10-19T13:52:51;2.70;;;2.50;;
7707;SDS011;3896;48.758;8.888;2023-10-19T13:55:18;2.63;;;2.40;;
7707;SDS011;3896;48.758;8.888;2023-10-19T13:57:45;2.93;;;2.20;;
7707;SDS011;3896;48.758;8.888;2023-10-19T14:00:12;2.90;;;2.40;;
7707;SDS011;3896;48.758;8.888;2023-10-19T14:02:45;2.73;;;2.53;;
7707;SDS011;3896;48.758;8.888;2023-10-19T14:05:12;2.67;;;1.77;;
7707;SDS011;3896;48.758;8.888;2023-10-19T14:07:38;1.73;;;1.63;;
7707;SDS011;3896;48.758;8.888;2023-10-19T14:10:05;2.23;;;1.80;;
7707;SDS011;3896;48.758;8.888;2023-10-19T14:12:32;2.40;;;1.70;;
7707;SDS011;3896;48.758;8.888;2023-10-19T14:14:58;2.07;;;1.87;;
7707;SDS011;3896;48.758;8.888;2023-10-19T14:17:24;3.03;;;2.10;;
7707;SDS011;3896;48.758;8.888;2023-10-19T14:19:50;4.63;;;2.17;;
7707;SDS011;3896;48.758;8.888;2023-10-19T14:22:16;2.73;;;2.30;;
7707;SDS011;3896;48.758;8.888;2023-10-19T14:24:42;1.73;;;1.63;;
7707;SDS011;3896;48.758;8.888;2023-10-19T14:27:09;2.17;;;1.97;;
7707;SDS011;3896;48.758;8.888;2023-10-19T14:29:35;3.20;;;1.87;;
7707;SDS011;3896;48.758;8.888;2023-10-19T14:32:01;1.97;;;1.77;;
7707;SDS011;3896;48.758;8.888;2023-10-19T14:34:28;2.00;;;1.77;;
7707;SDS011;3896;48.758;8.888;2023-10-19T14:36:53;2.73;;;2.00;;
7707;SDS011;3896;48.758;8.888;2023-10-19T14:39:19;2.40;;;2.00;;
7707;SDS011;3896;48.758;8.888;2023-10-19T14:41:45;2.70;;;1.90;;
7707;SDS011;3896;48.758;8.888;2023-10-19T14:44:11;1.97;;;1.87;;
7707;SDS011;3896;48.758;8.888;2023-10-19T14:46:36;2.73;;;2.00;;
7707;SDS011;3896;48.758;8.888;2023-10-19T14:49:02;3.03;;;1.97;;
7707;SDS011;3896;48.758;8.888;2023-10-19T14:51:28;1.70;;;1.60;;
7707;SDS011;3896;48.758;8.888;2023-10-19T14:53:53;1.80;;;1.67;;
7707;SDS011;3896;48.758;8.888;2023-10-19T14:56:19;1.93;;;1.83;;
7707;SDS011;3896;48.758;8.888;2023-10-19T14:58:45;2.23;;;1.73;;
7707;SDS011;3896;48.758;8.888;2023-10-19T15:01:11;4.93;;;2.13;;
7707;SDS011;3896;48.758;8.888;2023-10-19T15:03:41;2.50;;;2.30;;
7707;SDS011;3896;48.758;8.888;2023-10-19T15:06:07;3.13;;;2.37;;
7707;SDS011;3896;48.758;8.888;2023-10-19T15:08:33;1.93;;;1.83;;
7707;SDS011;3896;48.758;8.888;2023-10-19T15:10:59;2.20;;;2.00;;
7707;SDS011;3896;48.758;8.888;2023-10-19T15:13:24;2.37;;;2.10;;
7707;SDS011;3896;48.758;8.888;2023-10-19T15:15:51;2.40;;;2.20;;
7707;SDS011;3896;48.758;8.888;2023-10-19T15:18:16;1.77;;;1.67;;
7707;SDS011;3896;48.758;8.888;2023-10-19T15:20:43;2.27;;;1.90;;
7707;SDS011;3896;48.758;8.888;2023-10-19T15:23:08;2.80;;;1.67;;
7707;SDS011;3896;48.758;8.888;2023-10-19T15:25:35;1.83;;;1.40;;
7707;SDS011;3896;48.758;8.888;2023-10-19T15:28:02;2.07;;;1.83;;
7707;SDS011;3896;48.758;8.888;2023-10-19T15:30:28;1.37;;;1.33;;
7707;SDS011;3896;48.758;8.888;2023-10-19T15:32:54;3.97;;;1.70;;
7707;SDS011;3896;48.758;8.888;2023-10-19T15:35:19;1.67;;;1.57;;
7707;SDS011;3896;48.758;8.888;2023-10-19T15:37:47;3.20;;;1.77;;
7707;SDS011;3896;48.758;8.888;2023-10-19T15:40:13;1.70;;;1.37;;
7707;SDS011;3896;48.758;8.888;2023-10-19T15:42:40;3.07;;;1.20;;
7707;SDS011;3896;48.758;8.888;2023-10-19T15:45:12;2.37;;;2.27;;
7707;SDS011;3896;48.758;8.888;2023-10-19T15:47:39;2.90;;;2.10;;
7707;SDS011;3896;48.758;8.888;2023-10-19T15:50:06;2.90;;;2.70;;
7707;SDS011;3896;48.758;8.888;2023-10-19T15:52:33;2.67;;;1.90;;
7707;SDS011;3896;48.758;8.888;2023-10-19T15:55:00;2.47;;;1.50;;
7707;SDS011;3896;48.758;8.888;2023-10-19T15:57:26;1.73;;;1.63;;